Excellent Pescadores — HORK — position and weather

sailwx.info

Track history (hours):
 
Tides and Currents Weather Stations Pressure Air Temp Water Temp Dewpoint Dewpoint Depression Visibility Wind Speed Wind Dir Waves Ship Positions

Excellent Pescadores

Last reported at 2016-May-20 17:27 UTC. Time now 2016-May-29 07:43 UTC.
Position N 22°07' E 114°15'.
Warning: this ship's position is 8 days out of date.

Length 148 m; draft 5.2 m.

Type: Cargo ship. MMSI: 356291000.

Date/timePositionNaut miles runAvg speedWind from/ knotsBaromVisibWave heightAir tempDewpointWater temp
2016-May-20 17:27N 22°07' E 114°15'1310.6
2016-May-20 16:15N 22°16' E 114°06'4 4.3
2016-May-20 15:21N 22°20' E 114°04'0 0.1
2016-May-20 14:30N 22°20' E 114°04'0 0.0
2016-May-20 13:18N 22°20' E 114°04'0 0.0
2016-May-20 12:27N 22°20' E 114°04'0 0.0
2016-May-20 11:30N 22°20' E 114°04'0 0.0
2016-May-20 10:32N 22°20' E 114°04'0 0.0
2016-May-20 09:08N 22°20' E 114°04'0 0.0
2016-May-20 04:20N 22°20' E 114°04'0 0.1
2016-May-20 03:29N 22°20' E 114°04'0 0.1
2016-May-20 02:20N 22°20' E 114°04'0 0.1
2016-May-20 00:26N 22°20' E 114°04'0 0.1
2016-May-19 23:32N 22°20' E 114°04'0 0.1
2016-May-19 22:29N 22°20' E 114°04'0 0.0
2016-May-19 21:32N 22°20' E 114°04'0 0.0
2016-May-19 20:32N 22°20' E 114°04'0 0.2
2016-May-19 19:32N 22°20' E 114°04'0 0.1
2016-May-19 18:32N 22°20' E 114°04'0 0.0
2016-May-19 17:14N 22°20' E 114°04'0 0.2
2016-May-19 16:32N 22°20' E 114°04'18 8.0
2016-May-19 14:20N 22°08' E 114°18'31612.2
2016-May-18 12:27N 22°34' E 119°58'1111.9
2016-May-18 11:29N 22°39' E 120°10'7 7.6
2016-May-18 10:33N 22°37' E 120°17'0 0.0
2016-May-18 09:33N 22°37' E 120°17'0 0.0
2016-May-18 08:33N 22°37' E 120°17'0 0.0
2016-May-18 07:33N 22°37' E 120°17'0 0.0
2016-May-18 06:33N 22°37' E 120°17'0 0.0
2016-May-18 05:33N 22°37' E 120°17'0 0.0
2016-May-18 04:33N 22°37' E 120°17'0 0.0
2016-May-18 03:33N 22°37' E 120°17'0 0.0
2016-May-18 02:33N 22°37' E 120°17'0 0.0
2016-May-18 01:33N 22°37' E 120°17'0 0.0
2016-May-18 00:33N 22°37' E 120°17'0 0.0
2016-May-17 23:33N 22°37' E 120°17'0 0.0
2016-May-17 22:33N 22°37' E 120°17'0 0.0
2016-May-17 21:33N 22°37' E 120°17'0 0.0
2016-May-17 20:33N 22°37' E 120°17'0 0.0
2016-May-17 19:33N 22°37' E 120°17'0 0.0
2016-May-17 18:33N 22°37' E 120°17'0 0.0
2016-May-17 17:33N 22°37' E 120°17'0 0.0
2016-May-17 16:33N 22°37' E 120°17'0 0.0
2016-May-17 15:33N 22°37' E 120°17'0 0.0
2016-May-17 14:33N 22°37' E 120°17'0 0.0
2016-May-17 13:33N 22°37' E 120°17'0 0.0
2016-May-17 12:33N 22°37' E 120°17'0 0.0
2016-May-17 11:33N 22°37' E 120°17'0 0.0
2016-May-17 10:33N 22°37' E 120°17'0 0.0
2016-May-17 09:33N 22°37' E 120°17'0 0.0
2016-May-17 08:33N 22°37' E 120°17'0 0.0
2016-May-17 07:33N 22°37' E 120°17'0 0.0
2016-May-17 06:33N 22°37' E 120°17'0 0.0
2016-May-17 05:33N 22°37' E 120°17'0 0.0
2016-May-17 04:33N 22°37' E 120°17'0 0.0
2016-May-17 03:33N 22°37' E 120°17'0 0.0
2016-May-17 02:33N 22°37' E 120°17'0 0.0
2016-May-17 01:33N 22°37' E 120°17'0 0.0
2016-May-17 00:33N 22°37' E 120°17'0 0.0
2016-May-16 23:33N 22°37' E 120°17'0 0.0
2016-May-16 22:33N 22°37' E 120°17'0 0.0
2016-May-16 21:33N 22°37' E 120°17'0 0.0
2016-May-16 20:33N 22°37' E 120°17'0 0.0
2016-May-16 19:33N 22°37' E 120°17'0 0.0
2016-May-16 18:33N 22°37' E 120°17'0 0.0
2016-May-16 17:33N 22°37' E 120°17'0 0.0
2016-May-16 16:33N 22°37' E 120°17'0 0.0
2016-May-16 15:33N 22°37' E 120°17'0 0.0
2016-May-16 14:33N 22°37' E 120°17'0 0.0
2016-May-16 13:33N 22°37' E 120°17'0 0.0
2016-May-16 12:33N 22°37' E 120°17'0 0.0
2016-May-16 11:33N 22°37' E 120°17'0 0.0
2016-May-16 10:33N 22°37' E 120°17'0 0.0
2016-May-16 09:33N 22°37' E 120°17'0 0.0
2016-May-16 08:33N 22°37' E 120°17'0 0.0
2016-May-16 07:33N 22°37' E 120°17'0 0.0
2016-May-16 06:33N 22°37' E 120°17'0 0.0
2016-May-16 05:33N 22°37' E 120°17'5 5.0
2016-May-16 04:33N 22°37' E 120°12'9 9.4
2016-May-16 03:33N 22°46' E 120°07'  
Track history (hours):
 
Tides and Currents Weather Stations Pressure Air Temp Water Temp Dewpoint Dewpoint Depression Visibility Wind Speed Wind Dir Waves Ship Positions

Excellent Pescadores

Last reported at 2016-May-20 17:27 UTC. Time now 2016-May-29 07:43 UTC.
Position N 22°07' E 114°15'.
Warning: this ship's position is 8 days out of date.

Length 148 m; draft 5.2 m.

Type: Cargo ship. MMSI: 356291000.

Date/timePositionNaut miles runAvg speedWind from/ knotsBaromVisibWave heightAir tempDewpointWater temp
2016-May-20 17:27N 22°07' E 114°15'1310.6
2016-May-20 16:15N 22°16' E 114°06'4 4.3
2016-May-20 15:21N 22°20' E 114°04'0 0.1
2016-May-20 14:30N 22°20' E 114°04'0 0.0
2016-May-20 13:18N 22°20' E 114°04'0 0.0
2016-May-20 12:27N 22°20' E 114°04'0 0.0
2016-May-20 11:30N 22°20' E 114°04'0 0.0
2016-May-20 10:32N 22°20' E 114°04'0 0.0
2016-May-20 09:08N 22°20' E 114°04'0 0.0
2016-May-20 04:20N 22°20' E 114°04'0 0.1
2016-May-20 03:29N 22°20' E 114°04'0 0.1
2016-May-20 02:20N 22°20' E 114°04'0 0.1
2016-May-20 00:26N 22°20' E 114°04'0 0.1
2016-May-19 23:32N 22°20' E 114°04'0 0.1
2016-May-19 22:29N 22°20' E 114°04'0 0.0
2016-May-19 21:32N 22°20' E 114°04'0 0.0
2016-May-19 20:32N 22°20' E 114°04'0 0.2
2016-May-19 19:32N 22°20' E 114°04'0 0.1
2016-May-19 18:32N 22°20' E 114°04'0 0.0
2016-May-19 17:14N 22°20' E 114°04'0 0.2
2016-May-19 16:32N 22°20' E 114°04'18 8.0
2016-May-19 14:20N 22°08' E 114°18'31612.2
2016-May-18 12:27N 22°34' E 119°58'1111.9
2016-May-18 11:29N 22°39' E 120°10'7 7.6
2016-May-18 10:33N 22°37' E 120°17'0 0.0
2016-May-18 09:33N 22°37' E 120°17'0 0.0
2016-May-18 08:33N 22°37' E 120°17'0 0.0
2016-May-18 07:33N 22°37' E 120°17'0 0.0
2016-May-18 06:33N 22°37' E 120°17'0 0.0
2016-May-18 05:33N 22°37' E 120°17'0 0.0
2016-May-18 04:33N 22°37' E 120°17'0 0.0
2016-May-18 03:33N 22°37' E 120°17'0 0.0
2016-May-18 02:33N 22°37' E 120°17'0 0.0
2016-May-18 01:33N 22°37' E 120°17'0 0.0
2016-May-18 00:33N 22°37' E 120°17'0 0.0
2016-May-17 23:33N 22°37' E 120°17'0 0.0
2016-May-17 22:33N 22°37' E 120°17'0 0.0
2016-May-17 21:33N 22°37' E 120°17'0 0.0
2016-May-17 20:33N 22°37' E 120°17'0 0.0
2016-May-17 19:33N 22°37' E 120°17'0 0.0
2016-May-17 18:33N 22°37' E 120°17'0 0.0
2016-May-17 17:33N 22°37' E 120°17'0 0.0
2016-May-17 16:33N 22°37' E 120°17'0 0.0
2016-May-17 15:33N 22°37' E 120°17'0 0.0
2016-May-17 14:33N 22°37' E 120°17'0 0.0
2016-May-17 13:33N 22°37' E 120°17'0 0.0
2016-May-17 12:33N 22°37' E 120°17'0 0.0
2016-May-17 11:33N 22°37' E 120°17'0 0.0
2016-May-17 10:33N 22°37' E 120°17'0 0.0
2016-May-17 09:33N 22°37' E 120°17'0 0.0
2016-May-17 08:33N 22°37' E 120°17'0 0.0
2016-May-17 07:33N 22°37' E 120°17'0 0.0
2016-May-17 06:33N 22°37' E 120°17'0 0.0
2016-May-17 05:33N 22°37' E 120°17'0 0.0
2016-May-17 04:33N 22°37' E 120°17'0 0.0
2016-May-17 03:33N 22°37' E 120°17'0 0.0
2016-May-17 02:33N 22°37' E 120°17'0 0.0
2016-May-17 01:33N 22°37' E 120°17'0 0.0
2016-May-17 00:33N 22°37' E 120°17'0 0.0
2016-May-16 23:33N 22°37' E 120°17'0 0.0
2016-May-16 22:33N 22°37' E 120°17'0 0.0
2016-May-16 21:33N 22°37' E 120°17'0 0.0
2016-May-16 20:33N 22°37' E 120°17'0 0.0
2016-May-16 19:33N 22°37' E 120°17'0 0.0
2016-May-16 18:33N 22°37' E 120°17'0 0.0
2016-May-16 17:33N 22°37' E 120°17'0 0.0
2016-May-16 16:33N 22°37' E 120°17'0 0.0
2016-May-16 15:33N 22°37' E 120°17'0 0.0
2016-May-16 14:33N 22°37' E 120°17'0 0.0
2016-May-16 13:33N 22°37' E 120°17'0 0.0
2016-May-16 12:33N 22°37' E 120°17'0 0.0
2016-May-16 11:33N 22°37' E 120°17'0 0.0
2016-May-16 10:33N 22°37' E 120°17'0 0.0
2016-May-16 09:33N 22°37' E 120°17'0 0.0
2016-May-16 08:33N 22°37' E 120°17'0 0.0
2016-May-16 07:33N 22°37' E 120°17'0 0.0
2016-May-16 06:33N 22°37' E 120°17'0 0.0
2016-May-16 05:33N 22°37' E 120°17'5 5.0
2016-May-16 04:33N 22°37' E 120°12'9 9.4
2016-May-16 03:33N 22°46' E 120°07'  

Dump ship's entire track history